Time;durP1;ratioP1;P1;durP2;ratioP2;P2;SDS_P1;SDS_P2;PMS_P1;PMS_P2;Temp;Humidity;BMP_temperature;BMP_pressure;BME280_temperature;BME280_humidity;BME280_pressure;Samples;Min_cycle;Max_cycle;Signal;HPM_P1;HPM_P2
2022/12/29 00:02:12;;;;;;;10.50;8.20;;;8.10;99.90;;;;;;5101994;28;20672;-82
2022/12/29 00:04:37;;;;;;;10.95;8.38;;;8.20;99.90;;;;;;5100245;28;20032;-82
2022/12/29 00:07:04;;;;;;;12.95;9.30;;;8.20;99.90;;;;;;5103101;28;20035;-82
2022/12/29 00:09:30;;;;;;;11.00;8.88;;;8.20;99.90;;;;;;5099299;28;20049;-82
2022/12/29 00:11:57;;;;;;;15.15;8.77;;;8.20;99.90;;;;;;5099409;28;20080;-82
2022/12/29 00:17:07;;;;;;;13.45;7.85;;;8.30;99.90;;;;;;5101306;28;20070;-82
2022/12/29 00:36:00;;;;;;;10.18;7.40;;;8.30;99.90;;;;;;5103581;28;20035;-82
2022/12/29 00:44:07;;;;;;;10.20;7.32;;;8.30;99.90;;;;;;5102576;28;20137;-81
2022/12/29 00:46:34;;;;;;;10.70;8.15;;;8.40;99.90;;;;;;5103995;28;20058;-82
2022/12/29 00:51:45;;;;;;;10.23;7.65;;;8.40;99.90;;;;;;5102692;28;20355;-82
2022/12/29 00:54:11;;;;;;;13.18;8.63;;;8.40;99.90;;;;;;5106115;28;20510;-82
2022/12/29 00:56:37;;;;;;;10.05;7.68;;;8.40;99.90;;;;;;5102811;28;20126;-82
2022/12/29 00:59:07;;;;;;;12.18;7.88;;;8.40;99.90;;;;;;5103993;28;20480;-82
2022/12/29 01:01:34;;;;;;;12.05;7.78;;;8.40;99.90;;;;;;5102407;27;20021;-82
2022/12/29 01:03:59;;;;;;;9.32;7.63;;;8.40;99.90;;;;;;5104380;28;20016;-82
2022/12/29 01:06:25;;;;;;;11.98;7.90;;;8.40;99.90;;;;;;5102293;28;20020;-82
2022/12/29 01:11:41;;;;;;;9.73;7.85;;;8.50;99.90;;;;;;5076683;28;20040;-81
2022/12/29 01:14:07;;;;;;;8.63;7.72;;;8.50;99.90;;;;;;5102970;28;20114;-82
2022/12/29 01:16:33;;;;;;;10.25;8.50;;;8.50;99.90;;;;;;5103338;28;20559;-81
2022/12/29 01:18:59;;;;;;;10.55;8.13;;;8.40;99.90;;;;;;5104160;28;20374;-82
2022/12/29 01:21:25;;;;;;;12.88;9.75;;;8.40;99.90;;;;;;5103076;28;20046;-82
2022/12/29 01:23:51;;;;;;;15.32;9.80;;;8.40;99.90;;;;;;5104801;28;20031;-82
2022/12/29 01:26:18;;;;;;;15.35;11.07;;;8.40;99.90;;;;;;5102550;28;20024;-82
2022/12/29 01:28:43;;;;;;;15.77;10.80;;;8.30;99.90;;;;;;5103688;28;21105;-82
2022/12/29 01:31:11;;;;;;;16.23;10.98;;;8.20;99.90;;;;;;5100831;28;20126;-82
2022/12/29 01:33:37;;;;;;;15.57;11.38;;;8.20;99.90;;;;;;5105114;28;20426;-82
2022/12/29 01:36:04;;;;;;;16.33;11.00;;;8.20;99.90;;;;;;5105413;28;20024;-82
2022/12/29 01:38:31;;;;;;;14.20;10.80;;;8.20;99.90;;;;;;5101284;28;20016;-81
2022/12/29 01:40:56;;;;;;;16.45;11.93;;;8.20;99.90;;;;;;5105403;28;20102;-82
2022/12/29 01:43:56;;;;;;;17.65;11.98;;;8.10;99.90;;;;;;5100362;28;20103;-82
2022/12/29 01:46:25;;;;;;;14.98;11.13;;;8.20;99.90;;;;;;5101329;28;20177;-82
2022/12/29 01:49:18;;;;;;;14.65;10.95;;;8.10;99.90;;;;;;5100621;28;20032;-82
2022/12/29 01:52:06;;;;;;;16.08;11.85;;;8.20;99.90;;;;;;5101456;28;20451;-82
2022/12/29 01:54:34;;;;;;;14.90;11.07;;;8.20;99.90;;;;;;5103640;28;20032;-82
2022/12/29 01:57:04;;;;;;;15.20;11.18;;;8.20;99.90;;;;;;5102481;28;20270;-82
2022/12/29 01:59:36;;;;;;;17.55;11.43;;;8.20;99.90;;;;;;5103939;28;20024;-82
2022/12/29 02:02:02;;;;;;;15.38;11.18;;;8.10;99.90;;;;;;5101426;28;20021;-82
2022/12/29 02:04:32;;;;;;;17.80;11.45;;;8.10;99.90;;;;;;5105856;28;20027;-82
2022/12/29 02:07:02;;;;;;;17.30;11.57;;;8.10;99.90;;;;;;5104961;28;20510;-82
2022/12/29 02:09:28;;;;;;;16.42;10.43;;;8.10;99.90;;;;;;5100995;28;20028;-81
2022/12/29 02:11:54;;;;;;;14.48;10.70;;;8.10;99.90;;;;;;5101049;28;20479;-82
2022/12/29 02:14:20;;;;;;;16.55;11.88;;;8.10;99.90;;;;;;5104246;28;20073;-81
2022/12/29 02:16:45;;;;;;;16.48;11.15;;;8.10;99.90;;;;;;5101177;28;20028;-82
2022/12/29 02:19:17;;;;;;;16.42;10.10;;;8.10;99.90;;;;;;5102374;28;20058;-82
2022/12/29 02:21:51;;;;;;;14.73;10.70;;;8.00;99.90;;;;;;5100796;28;20024;-82
2022/12/29 02:24:31;;;;;;;13.13;9.23;;;8.00;99.90;;;;;;5101232;28;20031;-81
2022/12/29 02:27:20;;;;;;;11.70;8.95;;;8.00;99.90;;;;;;5102137;28;20482;-82
2022/12/29 02:30:11;;;;;;;12.38;8.98;;;8.00;99.90;;;;;;5101683;28;20028;-82
2022/12/29 02:33:11;;;;;;;13.25;10.25;;;7.90;99.90;;;;;;5116515;27;20122;-82
2022/12/29 02:35:55;;;;;;;14.68;9.25;;;7.90;99.90;;;;;;5099091;28;20060;-82
2022/12/29 02:38:50;;;;;;;13.30;9.63;;;8.00;99.90;;;;;;5100988;28;20039;-82
2022/12/29 02:41:31;;;;;;;13.73;9.10;;;7.90;99.90;;;;;;5101759;28;20493;-81
2022/12/29 02:43:59;;;;;;;12.15;8.98;;;8.00;99.90;;;;;;5105219;28;20024;-81
2022/12/29 02:46:48;;;;;;;11.57;8.75;;;8.00;99.90;;;;;;5101032;28;20042;-82
2022/12/29 02:49:26;;;;;;;15.10;9.68;;;8.00;99.90;;;;;;5099732;28;20120;-82
2022/12/29 02:52:01;;;;;;;15.60;9.38;;;8.00;99.90;;;;;;5099736;28;20036;-81
2022/12/29 02:54:42;;;;;;;17.65;9.90;;;8.00;99.90;;;;;;5102101;28;20149;-81
2022/12/29 02:57:22;;;;;;;15.52;11.07;;;8.00;99.90;;;;;;5100180;28;20028;-82
2022/12/29 02:59:56;;;;;;;15.25;10.40;;;8.10;99.90;;;;;;5101195;28;20027;-82
2022/12/29 03:02:58;;;;;;;14.10;10.05;;;8.10;99.90;;;;;;5102007;28;20391;-82
2022/12/29 03:05:23;;;;;;;15.95;9.45;;;8.10;99.90;;;;;;5100731;28;20054;-82
2022/12/29 03:08:04;;;;;;;14.80;10.35;;;8.10;99.90;;;;;;5102619;28;20527;-82
2022/12/29 03:10:48;;;;;;;15.75;9.95;;;8.10;99.90;;;;;;5100335;28;20035;-82
2022/12/29 03:16:43;;;;;;;15.20;10.10;;;8.10;99.90;;;;;;5099776;28;20043;-82
2022/12/29 03:19:33;;;;;;;16.35;9.75;;;8.20;99.90;;;;;;5101093;28;20032;-82
2022/12/29 03:24:52;;;;;;;17.17;11.23;;;8.20;99.90;;;;;;5100941;28;20066;-82
2022/12/29 03:27:22;;;;;;;15.85;11.93;;;8.20;99.90;;;;;;5102289;28;20502;-82
2022/12/29 03:29:53;;;;;;;19.75;11.52;;;8.20;99.90;;;;;;5101221;28;20103;-81
2022/12/29 03:32:23;;;;;;;17.00;12.07;;;8.30;99.90;;;;;;5101494;28;20081;-82
2022/12/29 03:34:49;;;;;;;15.52;11.00;;;8.30;99.90;;;;;;5099559;28;20032;-81
2022/12/29 03:37:20;;;;;;;16.35;11.07;;;8.30;99.90;;;;;;5099226;28;20024;-81
2022/12/29 03:39:46;;;;;;;25.65;11.57;;;8.30;99.90;;;;;;5099277;28;20027;-82
2022/12/29 03:42:16;;;;;;;17.00;11.02;;;8.30;99.90;;;;;;5101856;28;20025;-81
2022/12/29 03:44:43;;;;;;;15.93;11.60;;;8.30;99.90;;;;;;5100513;28;20043;-81
2022/12/29 03:47:11;;;;;;;21.00;12.30;;;8.30;99.90;;;;;;5100924;28;20031;-81
2022/12/29 03:49:37;;;;;;;19.35;11.20;;;8.30;99.90;;;;;;5103225;28;20036;-82
2022/12/29 03:52:03;;;;;;;19.90;12.43;;;8.20;99.90;;;;;;5099460;28;20082;-82
2022/12/29 03:54:30;;;;;;;14.70;10.85;;;8.30;99.90;;;;;;5101675;28;20047;-82
2022/12/29 03:56:56;;;;;;;18.25;11.85;;;8.20;99.90;;;;;;5101032;28;20055;-81
2022/12/29 03:59:22;;;;;;;15.80;11.20;;;8.20;99.90;;;;;;5100044;28;20071;-81
2022/12/29 04:01:47;;;;;;;16.13;11.55;;;8.20;99.90;;;;;;5101224;28;20386;-81
2022/12/29 04:04:13;;;;;;;16.42;11.20;;;8.20;99.90;;;;;;5103703;28;20028;-82
2022/12/29 04:06:39;;;;;;;17.17;12.25;;;8.20;99.90;;;;;;5099428;28;20411;-81
2022/12/29 04:09:06;;;;;;;18.23;12.18;;;8.20;99.90;;;;;;5101794;28;20030;-81
2022/12/29 04:11:31;;;;;;;19.52;12.20;;;8.20;99.90;;;;;;5102470;28;20028;-81
2022/12/29 04:13:57;;;;;;;22.38;12.68;;;8.10;99.90;;;;;;5102976;28;20028;-81
2022/12/29 04:16:23;;;;;;;19.33;12.25;;;8.20;99.90;;;;;;5107092;28;20028;-82
2022/12/29 04:18:48;;;;;;;16.65;12.25;;;8.20;99.90;;;;;;5106550;28;20107;-81
2022/12/29 04:21:14;;;;;;;18.52;12.25;;;8.20;99.90;;;;;;5101731;28;20024;-82
2022/12/29 04:23:40;;;;;;;21.50;14.02;;;8.20;99.90;;;;;;5106840;28;20020;-82
2022/12/29 04:26:07;;;;;;;21.73;14.45;;;8.20;99.90;;;;;;5103308;28;20157;-82
2022/12/29 04:28:33;;;;;;;19.83;13.00;;;8.20;99.90;;;;;;5106432;28;20107;-82
2022/12/29 04:30:59;;;;;;;19.33;13.05;;;8.20;99.90;;;;;;5103473;28;20435;-82
2022/12/29 04:33:25;;;;;;;21.48;12.68;;;8.20;99.90;;;;;;5102116;28;20396;-82
2022/12/29 04:35:52;;;;;;;20.58;13.30;;;8.20;99.90;;;;;;5106292;28;20032;-82
2022/12/29 04:38:18;;;;;;;19.08;13.07;;;8.20;99.90;;;;;;5105462;28;20526;-82
2022/12/29 04:40:44;;;;;;;20.38;13.88;;;8.20;99.90;;;;;;5102615;28;20133;-82
2022/12/29 04:43:10;;;;;;;21.65;14.57;;;8.20;99.90;;;;;;5103750;28;21041;-82
2022/12/29 04:45:36;;;;;;;21.80;14.93;;;8.20;99.90;;;;;;5104128;28;20044;-81
2022/12/29 04:48:02;;;;;;;24.30;14.38;;;8.10;99.90;;;;;;5104710;28;20024;-82
2022/12/29 04:50:28;;;;;;;22.63;14.95;;;8.10;99.90;;;;;;5103351;28;20028;-81
2022/12/29 04:52:54;;;;;;;25.38;15.18;;;8.10;99.90;;;;;;5103878;28;20486;-82
2022/12/29 04:55:20;;;;;;;22.25;15.00;;;8.10;99.90;;;;;;5104978;28;20035;-81
2022/12/29 04:57:46;;;;;;;22.70;16.08;;;8.10;99.90;;;;;;5103433;28;20035;-82
2022/12/29 05:00:12;;;;;;;24.63;15.15;;;8.10;99.90;;;;;;5103966;28;20042;-82
2022/12/29 05:02:38;;;;;;;22.42;15.32;;;8.10;99.90;;;;;;5103084;28;20437;-82
2022/12/29 05:05:05;;;;;;;25.65;15.32;;;8.20;99.90;;;;;;5107204;28;20034;-81
2022/12/29 05:07:33;;;;;;;20.85;14.68;;;8.20;99.90;;;;;;5106248;28;20031;-81
2022/12/29 05:09:59;;;;;;;22.90;14.93;;;8.20;99.90;;;;;;5102306;28;20069;-81
2022/12/29 05:12:24;;;;;;;26.15;15.60;;;8.10;99.90;;;;;;5101142;28;20031;-81
2022/12/29 05:14:50;;;;;;;22.60;14.85;;;8.20;99.90;;;;;;5105894;28;20161;-81
2022/12/29 05:17:16;;;;;;;25.48;16.08;;;8.20;99.90;;;;;;5102107;28;20031;-81
2022/12/29 05:19:42;;;;;;;25.70;16.00;;;8.10;99.90;;;;;;5105433;28;20114;-81
2022/12/29 05:22:07;;;;;;;25.55;16.00;;;8.10;99.90;;;;;;5102292;28;20058;-81
2022/12/29 05:24:33;;;;;;;21.30;14.55;;;8.10;99.90;;;;;;5104980;28;20027;-81
2022/12/29 05:26:58;;;;;;;26.38;16.38;;;8.10;99.90;;;;;;5102902;28;20034;-82
2022/12/29 05:29:24;;;;;;;23.42;15.57;;;8.10;99.90;;;;;;5104353;28;20494;-82
2022/12/29 05:31:50;;;;;;;26.85;16.38;;;8.10;99.90;;;;;;5101975;28;20081;-81
2022/12/29 05:34:15;;;;;;;27.65;17.25;;;8.10;99.90;;;;;;5101418;28;20035;-81
2022/12/29 05:36:41;;;;;;;27.17;16.65;;;8.10;99.90;;;;;;5104172;28;20060;-81
2022/12/29 05:39:10;;;;;;;28.77;16.13;;;8.10;99.90;;;;;;5102334;28;20643;-81
2022/12/29 05:41:35;;;;;;;21.05;15.32;;;8.10;99.90;;;;;;5103361;28;20030;-81
2022/12/29 05:44:01;;;;;;;26.13;16.48;;;8.10;99.90;;;;;;5102522;28;20118;-81
2022/12/29 05:46:27;;;;;;;25.55;17.20;;;8.10;99.90;;;;;;5102825;28;20030;-81
2022/12/29 05:48:53;;;;;;;26.20;17.45;;;8.00;99.90;;;;;;5102574;28;20073;-81
2022/12/29 05:51:18;;;;;;;25.67;17.08;;;8.00;99.90;;;;;;5102235;28;20031;-81
2022/12/29 05:53:44;;;;;;;28.10;17.40;;;8.10;99.90;;;;;;5103501;28;20035;-81
2022/12/29 05:56:09;;;;;;;28.10;16.85;;;8.10;99.90;;;;;;5101435;28;20039;-81
2022/12/29 05:58:35;;;;;;;27.38;17.88;;;8.10;99.90;;;;;;5105047;28;20075;-81
2022/12/29 06:01:01;;;;;;;26.13;16.88;;;8.10;99.90;;;;;;5105167;28;20023;-81
2022/12/29 06:03:27;;;;;;;26.83;17.13;;;8.10;99.90;;;;;;5100378;28;20024;-81
2022/12/29 06:05:52;;;;;;;24.60;16.85;;;8.20;99.90;;;;;;5100904;28;20068;-81
2022/12/29 06:08:18;;;;;;;25.45;15.98;;;8.20;99.90;;;;;;5101716;28;20035;-81
2022/12/29 06:10:44;;;;;;;25.25;15.93;;;8.20;99.90;;;;;;5105361;28;20036;-81
2022/12/29 06:13:09;;;;;;;25.58;17.20;;;8.20;99.90;;;;;;5101140;28;20600;-81
2022/12/29 06:15:36;;;;;;;27.70;17.95;;;8.20;99.90;;;;;;5105248;28;20031;-81
2022/12/29 06:18:01;;;;;;;30.65;17.13;;;8.30;99.90;;;;;;5102834;28;20032;-81
2022/12/29 06:20:28;;;;;;;29.73;18.17;;;8.30;99.90;;;;;;5098718;28;20031;-81
2022/12/29 06:22:53;;;;;;;25.98;17.25;;;8.30;99.90;;;;;;5102654;28;20023;-81
2022/12/29 06:25:19;;;;;;;25.23;16.77;;;8.30;99.90;;;;;;5104716;28;20103;-81
2022/12/29 06:27:45;;;;;;;30.80;21.23;;;8.30;99.90;;;;;;5097855;28;20467;-82
2022/12/29 06:30:11;;;;;;;29.70;18.38;;;8.30;99.90;;;;;;5104989;28;20030;-82
2022/12/29 06:32:37;;;;;;;26.55;17.42;;;8.30;99.90;;;;;;5100065;28;20028;-81
2022/12/29 06:35:04;;;;;;;28.75;17.90;;;8.30;99.90;;;;;;5103424;28;20031;-81
2022/12/29 06:37:30;;;;;;;29.65;17.88;;;8.30;99.90;;;;;;5102485;28;20114;-81
2022/12/29 06:39:55;;;;;;;25.73;16.70;;;8.20;99.90;;;;;;5100569;28;20446;-81
2022/12/29 06:42:21;;;;;;;30.42;17.67;;;8.30;99.90;;;;;;5100606;28;20457;-81
2022/12/29 06:44:47;;;;;;;33.13;20.42;;;8.30;99.90;;;;;;5099298;28;20044;-81
2022/12/29 06:47:12;;;;;;;34.50;21.30;;;8.30;99.90;;;;;;5106778;28;20031;-81
2022/12/29 06:49:39;;;;;;;30.70;19.77;;;8.30;99.90;;;;;;5111010;28;20115;-81
2022/12/29 06:52:05;;;;;;;43.70;22.73;;;8.30;99.90;;;;;;5108582;28;20020;-81
2022/12/29 06:54:31;;;;;;;40.47;22.33;;;8.30;99.90;;;;;;5097366;27;20387;-81
2022/12/29 06:56:57;;;;;;;35.55;20.42;;;8.20;99.90;;;;;;5096607;28;20102;-81
2022/12/29 06:59:24;;;;;;;30.05;18.75;;;8.20;99.90;;;;;;5105332;28;20487;-82
2022/12/29 07:01:50;;;;;;;31.85;18.95;;;8.10;99.90;;;;;;5097105;28;20020;-82
2022/12/29 07:04:15;;;;;;;33.35;19.88;;;8.10;99.90;;;;;;5101875;28;20023;-81
2022/12/29 07:06:41;;;;;;;32.97;20.23;;;8.10;99.90;;;;;;5100432;28;20360;-82
2022/12/29 07:09:08;;;;;;;31.25;19.67;;;8.20;99.90;;;;;;5104422;28;20538;-81
2022/12/29 07:11:34;;;;;;;31.10;20.67;;;8.20;99.90;;;;;;5106241;28;20023;-81
2022/12/29 07:14:00;;;;;;;31.88;18.88;;;8.20;99.90;;;;;;5104215;28;20030;-81
2022/12/29 07:16:26;;;;;;;32.28;19.45;;;8.20;99.90;;;;;;5107752;28;20024;-81
2022/12/29 07:18:52;;;;;;;28.92;18.55;;;8.20;99.90;;;;;;5112814;28;20540;-81
2022/12/29 07:21:18;;;;;;;33.92;19.20;;;8.20;99.90;;;;;;5127383;27;20521;-81
2022/12/29 07:23:44;;;;;;;34.10;20.27;;;8.20;99.90;;;;;;5113061;28;20028;-81
2022/12/29 07:26:13;;;;;;;30.88;19.38;;;8.20;99.90;;;;;;5112568;28;20083;-81
2022/12/29 07:28:39;;;;;;;33.10;20.77;;;8.10;99.90;;;;;;5112176;28;20099;-81
2022/12/29 07:31:05;;;;;;;33.63;20.92;;;8.10;99.90;;;;;;5111531;28;20111;-81
2022/12/29 07:33:32;;;;;;;32.08;20.25;;;8.10;99.90;;;;;;5111955;28;20039;-81
2022/12/29 07:35:58;;;;;;;34.70;19.90;;;8.10;99.90;;;;;;5111964;28;20035;-81
2022/12/29 07:38:24;;;;;;;32.85;20.08;;;8.10;99.90;;;;;;5124193;28;20024;-81
2022/12/29 07:40:50;;;;;;;32.28;19.23;;;8.20;99.90;;;;;;5109670;28;20387;-80
2022/12/29 07:43:16;;;;;;;31.80;19.65;;;8.20;99.90;;;;;;5108253;28;20026;-81
2022/12/29 07:45:42;;;;;;;32.17;19.60;;;8.20;99.90;;;;;;5111940;28;20051;-81
2022/12/29 07:48:08;;;;;;;31.42;19.00;;;8.20;99.90;;;;;;5108704;28;20027;-81
2022/12/29 07:50:36;;;;;;;31.58;20.45;;;8.30;99.90;;;;;;5106589;28;20135;-80
2022/12/29 07:53:02;;;;;;;29.23;19.63;;;8.30;99.90;;;;;;5102836;28;20065;-80
2022/12/29 07:55:29;;;;;;;33.42;19.65;;;8.30;99.90;;;;;;5113889;28;20074;-81
2022/12/29 07:57:55;;;;;;;32.70;20.08;;;8.30;99.90;;;;;;5113920;28;20110;-81
2022/12/29 08:00:21;;;;;;;30.58;18.00;;;8.30;99.90;;;;;;5103638;28;20483;-81
2022/12/29 08:02:52;;;;;;;31.08;19.73;;;8.40;99.90;;;;;;5111662;28;20023;-81
2022/12/29 08:05:28;;;;;;;33.03;19.70;;;8.40;99.90;;;;;;5105109;28;20024;-81
2022/12/29 08:07:55;;;;;;;33.67;19.00;;;8.30;99.90;;;;;;5110069;28;20044;-81
2022/12/29 08:10:20;;;;;;;31.73;19.73;;;8.40;99.90;;;;;;5106427;27;20709;-81
2022/12/29 08:12:46;;;;;;;35.58;20.80;;;8.40;99.90;;;;;;5115212;28;20390;-81
2022/12/29 08:15:12;;;;;;;42.58;25.38;;;8.40;99.90;;;;;;5114964;28;20027;-81
2022/12/29 08:17:38;;;;;;;42.42;24.48;;;8.40;99.90;;;;;;5107408;28;20510;-81
2022/12/29 08:20:04;;;;;;;41.13;25.90;;;8.40;99.90;;;;;;5095611;28;20111;-80
2022/12/29 08:22:30;;;;;;;45.05;27.20;;;8.40;99.90;;;;;;5110494;28;20544;-81
2022/12/29 08:24:56;;;;;;;40.42;26.92;;;8.40;99.90;;;;;;5114675;28;20031;-80
2022/12/29 08:27:21;;;;;;;42.13;27.20;;;8.40;99.90;;;;;;5115655;28;20031;-81
2022/12/29 08:29:47;;;;;;;42.45;26.35;;;8.40;99.90;;;;;;5121515;27;20406;-80
2022/12/29 08:32:13;;;;;;;40.40;24.88;;;8.40;99.90;;;;;;5108926;28;20514;-80
2022/12/29 08:34:39;;;;;;;36.17;22.40;;;8.40;99.90;;;;;;5114109;28;20110;-81
2022/12/29 08:37:05;;;;;;;37.72;21.65;;;8.50;99.90;;;;;;5113479;28;20077;-80
2022/12/29 08:39:30;;;;;;;36.92;23.27;;;8.50;99.90;;;;;;5107914;28;20081;-80
2022/12/29 08:41:56;;;;;;;38.65;23.38;;;8.50;99.90;;;;;;5115515;28;20566;-80
2022/12/29 08:44:22;;;;;;;36.97;23.23;;;8.50;99.90;;;;;;5114903;28;20062;-80
2022/12/29 08:46:47;;;;;;;38.45;23.27;;;8.60;99.90;;;;;;5115471;28;20030;-80
2022/12/29 08:49:13;;;;;;;38.92;25.27;;;8.60;99.90;;;;;;5109591;27;20028;-80
2022/12/29 08:51:39;;;;;;;41.88;25.73;;;8.60;99.90;;;;;;5100092;28;20115;-81
2022/12/29 08:54:05;;;;;;;45.35;27.08;;;8.60;99.90;;;;;;5107806;27;20024;-80
2022/12/29 08:56:31;;;;;;;43.63;25.77;;;8.60;99.90;;;;;;5093008;28;20040;-80
2022/12/29 08:58:57;;;;;;;46.70;27.38;;;8.60;99.90;;;;;;5103008;28;20030;-81
2022/12/29 09:01:22;;;;;;;42.75;26.85;;;8.60;99.90;;;;;;5110478;28;20054;-80
2022/12/29 09:03:48;;;;;;;39.78;25.98;;;8.60;99.90;;;;;;5110288;28;20432;-81
2022/12/29 09:06:15;;;;;;;38.65;24.90;;;8.60;99.90;;;;;;5100027;28;20023;-81
2022/12/29 09:08:41;;;;;;;35.70;24.60;;;8.60;99.90;;;;;;5105746;28;20055;-80
2022/12/29 09:11:20;;;;;;;41.42;24.80;;;8.50;99.90;;;;;;5104070;28;20074;-80
2022/12/29 09:13:46;;;;;;;37.78;23.88;;;8.40;99.90;;;;;;5100289;28;20031;-81
2022/12/29 09:16:12;;;;;;;37.95;24.10;;;8.30;99.90;;;;;;5098689;27;20111;-80
2022/12/29 09:18:38;;;;;;;37.38;23.63;;;8.30;99.90;;;;;;5100123;28;20475;-80
2022/12/29 09:21:05;;;;;;;38.80;23.55;;;8.30;99.90;;;;;;5121167;27;20326;-81
2022/12/29 09:23:32;;;;;;;35.05;24.35;;;8.30;99.90;;;;;;5114644;27;20024;-80
2022/12/29 09:25:58;;;;;;;38.05;24.75;;;8.30;99.90;;;;;;5115790;27;20055;-80
2022/12/29 09:28:24;;;;;;;37.45;24.50;;;8.30;99.90;;;;;;5113904;27;20070;-81
2022/12/29 09:30:50;;;;;;;41.42;24.10;;;8.30;99.90;;;;;;5121438;27;20031;-80
2022/12/29 09:33:17;;;;;;;40.65;23.85;;;8.30;99.90;;;;;;5108598;27;20038;-80
2022/12/29 09:35:44;;;;;;;35.28;24.33;;;8.40;99.90;;;;;;5106887;28;20031;-80
2022/12/29 09:38:10;;;;;;;39.38;25.83;;;8.40;99.90;;;;;;5098331;28;20051;-80
2022/12/29 09:40:37;;;;;;;39.53;25.20;;;8.40;99.90;;;;;;5104504;28;20141;-81
2022/12/29 09:43:23;;;;;;;60.70;38.40;;;8.40;99.90;;;;;;5104154;28;20020;-80
2022/12/29 09:46:21;;;;;;;53.00;33.35;;;8.40;99.90;;;;;;5104060;27;20043;-80
2022/12/29 09:49:17;;;;;;;48.45;30.25;;;8.50;99.90;;;;;;5119217;27;20523;-80
2022/12/29 09:51:49;;;;;;;45.90;26.90;;;8.50;99.90;;;;;;5104638;27;20031;-80
2022/12/29 09:54:37;;;;;;;41.67;28.30;;;8.50;99.90;;;;;;5102349;27;20023;-80
2022/12/29 09:57:02;;;;;;;40.42;27.52;;;8.50;99.90;;;;;;5115591;27;20019;-81
2022/12/29 09:59:43;;;;;;;40.55;26.58;;;8.60;99.90;;;;;;5120401;27;20412;-80
2022/12/29 10:02:40;;;;;;;37.88;26.05;;;8.60;99.90;;;;;;5109728;27;20027;-81
2022/12/29 10:05:19;;;;;;;40.72;24.27;;;8.60;99.90;;;;;;5101283;28;20118;-81
2022/12/29 10:08:20;;;;;;;45.45;26.50;;;8.70;99.90;;;;;;5102652;28;20022;-81
2022/12/29 10:11:07;;;;;;;50.08;30.33;;;8.70;99.90;;;;;;5058259;28;20438;-80
2022/12/29 10:14:05;;;;;;;43.97;28.67;;;8.70;99.90;;;;;;5110514;28;20031;-80
2022/12/29 10:16:38;;;;;;;42.88;26.65;;;8.70;99.90;;;;;;5057003;28;20036;-81
2022/12/29 10:19:13;;;;;;;41.08;26.15;;;8.70;99.90;;;;;;5107262;28;20122;-80
2022/12/29 10:22:06;;;;;;;48.72;27.85;;;8.70;99.90;;;;;;5101183;28;20041;-81
2022/12/29 10:24:37;;;;;;;48.00;28.70;;;8.80;99.90;;;;;;5098743;28;20035;-76
2022/12/29 10:27:09;;;;;;;46.95;28.38;;;8.80;99.90;;;;;;5099754;28;20030;-76
2022/12/29 10:29:39;;;;;;;43.35;27.38;;;8.80;99.90;;;;;;5101271;28;20023;-76
2022/12/29 10:32:21;;;;;;;41.08;28.50;;;8.80;99.90;;;;;;5097182;28;20024;-76
2022/12/29 10:34:53;;;;;;;43.13;28.95;;;8.80;99.90;;;;;;5095607;28;20034;-76
2022/12/29 10:37:21;;;;;;;42.45;27.20;;;8.80;99.90;;;;;;5097191;28;20020;-76
2022/12/29 10:39:52;;;;;;;44.88;26.80;;;8.80;99.90;;;;;;5102072;28;20016;-76
2022/12/29 10:42:40;;;;;;;44.88;30.45;;;8.80;99.90;;;;;;5097616;28;20220;-76
2022/12/29 10:45:14;;;;;;;43.03;29.58;;;8.80;99.90;;;;;;5098005;28;20495;-76
2022/12/29 10:47:54;;;;;;;42.53;26.95;;;8.80;99.90;;;;;;5102253;28;20023;-76
2022/12/29 10:50:20;;;;;;;43.40;26.05;;;8.80;99.90;;;;;;5098478;28;20024;-76
2022/12/29 10:52:47;;;;;;;39.42;26.13;;;8.90;99.90;;;;;;5099706;28;20024;-76
2022/12/29 10:55:21;;;;;;;43.15;27.80;;;8.90;99.90;;;;;;5099464;28;20051;-76
2022/12/29 10:57:49;;;;;;;45.75;29.70;;;8.90;99.90;;;;;;5101479;28;20055;-76
2022/12/29 11:00:24;;;;;;;45.13;28.52;;;9.00;99.90;;;;;;5100041;28;20023;-76
2022/12/29 11:03:09;;;;;;;45.55;28.17;;;9.00;99.90;;;;;;5097067;28;20483;-76
2022/12/29 11:05:50;;;;;;;41.28;27.58;;;9.00;99.90;;;;;;5101280;28;20441;-76
2022/12/29 11:08:22;;;;;;;45.28;27.88;;;9.10;99.90;;;;;;5106331;28;20102;-76
2022/12/29 11:11:01;;;;;;;44.85;29.05;;;9.10;99.90;;;;;;5117609;27;20042;-76
2022/12/29 11:13:34;;;;;;;41.92;27.25;;;9.20;99.90;;;;;;5104140;28;20099;-76
2022/12/29 11:16:00;;;;;;;45.60;28.30;;;9.20;99.90;;;;;;5100546;28;20068;-76
2022/12/29 11:18:27;;;;;;;45.83;28.50;;;9.30;99.90;;;;;;5102020;28;20548;-76
2022/12/29 11:20:59;;;;;;;45.67;30.08;;;9.30;99.90;;;;;;5100610;28;20072;-76
2022/12/29 11:23:34;;;;;;;48.13;28.67;;;9.30;99.90;;;;;;5103201;28;20052;-76
2022/12/29 11:26:21;;;;;;;42.00;28.35;;;9.30;99.90;;;;;;5098134;28;20448;-76
2022/12/29 11:29:05;;;;;;;45.85;29.02;;;9.30;99.90;;;;;;5103056;28;20042;-76
2022/12/29 11:31:31;;;;;;;45.10;28.75;;;9.30;99.90;;;;;;5101910;28;20089;-76
2022/12/29 11:33:56;;;;;;;46.70;29.58;;;9.40;99.90;;;;;;5098184;28;20032;-76
2022/12/29 11:36:24;;;;;;;42.25;28.75;;;9.40;99.90;;;;;;5101673;28;20114;-76
2022/12/29 11:38:52;;;;;;;45.47;28.33;;;9.40;99.90;;;;;;5102761;28;20100;-76
2022/12/29 11:41:27;;;;;;;46.40;28.45;;;9.40;99.90;;;;;;5098835;28;20024;-76
2022/12/29 11:43:56;;;;;;;48.97;29.15;;;9.30;99.90;;;;;;5102666;28;20437;-76
2022/12/29 11:46:27;;;;;;;48.97;29.60;;;9.20;99.90;;;;;;5100082;28;20028;-76
2022/12/29 11:48:53;;;;;;;45.83;29.77;;;9.20;99.90;;;;;;5099336;28;20035;-76
2022/12/29 11:51:28;;;;;;;42.15;28.50;;;9.20;99.90;;;;;;5109746;28;20023;-76
2022/12/29 11:53:57;;;;;;;45.63;28.10;;;9.30;99.90;;;;;;5110467;28;20080;-76
2022/12/29 11:56:34;;;;;;;40.67;26.27;;;9.20;99.90;;;;;;5106343;28;20084;-76
2022/12/29 11:59:38;;;;;;;40.67;27.27;;;9.20;99.90;;;;;;5093914;28;20390;-76
2022/12/29 12:02:31;;;;;;;42.00;28.20;;;9.20;99.90;;;;;;5099913;28;20054;-76
2022/12/29 12:05:22;;;;;;;45.15;29.08;;;9.20;99.90;;;;;;5093860;28;20487;-76
2022/12/29 12:08:15;;;;;;;45.80;29.50;;;9.20;99.90;;;;;;5102608;28;20039;-76
2022/12/29 12:11:02;;;;;;;45.38;29.73;;;9.20;99.90;;;;;;5074902;28;20428;-76
2022/12/29 12:13:36;;;;;;;43.58;28.75;;;9.10;99.90;;;;;;5099607;28;20024;-76
2022/12/29 12:16:06;;;;;;;44.05;30.15;;;9.10;99.90;;;;;;5096074;28;20382;-76
2022/12/29 12:18:55;;;;;;;43.50;29.85;;;9.10;99.90;;;;;;5101312;28;20042;-76
2022/12/29 12:21:23;;;;;;;40.38;27.67;;;9.10;99.90;;;;;;5116304;28;20031;-76
2022/12/29 12:24:20;;;;;;;43.80;29.50;;;9.10;99.90;;;;;;5102560;28;20101;-76
2022/12/29 12:26:54;;;;;;;42.30;30.00;;;9.10;99.90;;;;;;5099803;28;20092;-76
2022/12/29 12:29:32;;;;;;;45.10;29.10;;;9.10;99.90;;;;;;5100989;28;20487;-76
2022/12/29 12:32:29;;;;;;;45.63;29.67;;;9.20;99.90;;;;;;5099914;28;20032;-76
2022/12/29 12:34:55;;;;;;;48.10;29.92;;;9.20;99.90;;;;;;5086162;28;20044;-76
2022/12/29 12:37:58;;;;;;;44.72;28.85;;;9.20;99.90;;;;;;5102618;28;20024;-76
2022/12/29 12:40:38;;;;;;;43.53;28.55;;;9.20;99.90;;;;;;5103669;28;20024;-76
2022/12/29 12:43:41;;;;;;;48.42;32.60;;;9.10;99.90;;;;;;5104139;28;20011;-76
2022/12/29 12:46:16;;;;;;;49.40;32.83;;;9.10;99.90;;;;;;5104499;28;20044;-76
2022/12/29 12:49:03;;;;;;;51.65;36.17;;;9.10;99.90;;;;;;5102725;28;20047;-76
2022/12/29 12:51:53;;;;;;;49.95;34.25;;;8.90;99.90;;;;;;5103141;28;20403;-76
2022/12/29 12:54:43;;;;;;;59.38;37.08;;;8.90;99.90;;;;;;5104511;28;20480;-76
2022/12/29 12:57:15;;;;;;;50.03;32.85;;;8.90;99.90;;;;;;5101483;28;20028;-75
2022/12/29 12:59:50;;;;;;;44.83;29.67;;;9.00;99.90;;;;;;5104160;28;20495;-75
2022/12/29 13:02:28;;;;;;;53.53;32.47;;;9.10;99.90;;;;;;5099894;28;20491;-75
2022/12/29 13:05:17;;;;;;;48.22;32.35;;;9.10;99.90;;;;;;5097932;28;20074;-76
2022/12/29 13:08:04;;;;;;;45.47;30.95;;;9.10;99.90;;;;;;5101156;28;20031;-76
2022/12/29 13:10:47;;;;;;;44.10;30.67;;;9.10;99.90;;;;;;5110010;28;20035;-76
2022/12/29 13:13:25;;;;;;;49.22;32.75;;;9.10;99.90;;;;;;5102140;28;20502;-76
2022/12/29 13:16:19;;;;;;;55.78;34.75;;;9.10;99.90;;;;;;5095166;28;20032;-76
2022/12/29 13:18:55;;;;;;;55.72;34.10;;;9.00;99.90;;;;;;5102941;28;20024;-76
2022/12/29 13:21:49;;;;;;;52.47;32.58;;;9.00;99.90;;;;;;5104755;28;20023;-76
2022/12/29 13:24:20;;;;;;;43.92;30.67;;;9.10;99.90;;;;;;5103887;28;20028;-76
2022/12/29 13:27:18;;;;;;;50.58;31.85;;;9.00;99.90;;;;;;5100579;28;20028;-76
2022/12/29 13:29:53;;;;;;;46.50;31.73;;;9.10;99.90;;;;;;5060691;28;20032;-76
2022/12/29 13:32:40;;;;;;;47.78;32.78;;;9.10;99.90;;;;;;5102925;28;20024;-76
2022/12/29 13:35:25;;;;;;;46.88;31.98;;;9.10;99.90;;;;;;5101326;28;20030;-76
2022/12/29 13:38:15;;;;;;;49.05;32.50;;;9.10;99.90;;;;;;5098971;28;20491;-76